sensor_id;sensor_type;location;lat;lon;timestamp;P1;durP1;ratioP1;P2;durP2;ratioP2
54613;SDS011;40514;52.758;6.360;2022-08-19T00:34:55;9.98;;;6.85;;
54613;SDS011;40514;52.758;6.360;2022-08-19T00:37:21;8.43;;;6.73;;
54613;SDS011;40514;52.758;6.360;2022-08-19T00:39:49;8.73;;;6.75;;
54613;SDS011;40514;52.758;6.360;2022-08-19T00:42:16;11.50;;;7.10;;
54613;SDS011;40514;52.758;6.360;2022-08-19T00:44:43;8.05;;;6.57;;
54613;SDS011;40514;52.758;6.360;2022-08-19T00:47:09;9.33;;;7.33;;
54613;SDS011;40514;52.758;6.360;2022-08-19T00:49:37;10.27;;;7.25;;
54613;SDS011;40514;52.758;6.360;2022-08-19T00:52:09;7.80;;;6.20;;
54613;SDS011;40514;52.758;6.360;2022-08-19T00:54:39;10.88;;;7.60;;
54613;SDS011;40514;52.758;6.360;2022-08-19T00:57:09;8.75;;;7.00;;
54613;SDS011;40514;52.758;6.360;2022-08-19T00:59:40;10.48;;;7.78;;
54613;SDS011;40514;52.758;6.360;2022-08-19T01:02:07;9.55;;;7.60;;
54613;SDS011;40514;52.758;6.360;2022-08-19T01:04:32;9.57;;;7.25;;
54613;SDS011;40514;52.758;6.360;2022-08-19T01:06:58;11.23;;;7.77;;
54613;SDS011;40514;52.758;6.360;2022-08-19T01:09:24;11.38;;;7.53;;
54613;SDS011;40514;52.758;6.360;2022-08-19T01:11:50;9.40;;;7.13;;
54613;SDS011;40514;52.758;6.360;2022-08-19T01:17:38;8.88;;;6.60;;
54613;SDS011;40514;52.758;6.360;2022-08-19T01:20:05;12.43;;;8.00;;
54613;SDS011;40514;52.758;6.360;2022-08-19T01:22:39;8.07;;;6.72;;
54613;SDS011;40514;52.758;6.360;2022-08-19T01:25:15;9.43;;;7.13;;
54613;SDS011;40514;52.758;6.360;2022-08-19T01:27:43;8.25;;;6.97;;
54613;SDS011;40514;52.758;6.360;2022-08-19T01:30:27;9.27;;;6.60;;
54613;SDS011;40514;52.758;6.360;2022-08-19T01:32:55;9.05;;;7.40;;
54613;SDS011;40514;52.758;6.360;2022-08-19T01:35:22;10.23;;;7.38;;
54613;SDS011;40514;52.758;6.360;2022-08-19T01:37:51;9.35;;;7.15;;
54613;SDS011;40514;52.758;6.360;2022-08-19T01:40:19;8.75;;;7.30;;
54613;SDS011;40514;52.758;6.360;2022-08-19T01:42:48;11.13;;;7.40;;
54613;SDS011;40514;52.758;6.360;2022-08-19T01:45:14;10.73;;;7.25;;
54613;SDS011;40514;52.758;6.360;2022-08-19T01:50:08;9.02;;;6.80;;
54613;SDS011;40514;52.758;6.360;2022-08-19T01:52:36;9.20;;;6.93;;
54613;SDS011;40514;52.758;6.360;2022-08-19T01:55:04;11.25;;;7.43;;
54613;SDS011;40514;52.758;6.360;2022-08-19T01:57:31;9.88;;;6.25;;
54613;SDS011;40514;52.758;6.360;2022-08-19T01:59:57;9.32;;;6.80;;
54613;SDS011;40514;52.758;6.360;2022-08-19T02:02:24;9.30;;;6.53;;
54613;SDS011;40514;52.758;6.360;2022-08-19T02:04:50;9.90;;;7.30;;
54613;SDS011;40514;52.758;6.360;2022-08-19T02:07:18;11.00;;;7.23;;
54613;SDS011;40514;52.758;6.360;2022-08-19T02:09:45;7.47;;;5.85;;
54613;SDS011;40514;52.758;6.360;2022-08-19T02:12:12;9.98;;;6.30;;
54613;SDS011;40514;52.758;6.360;2022-08-19T02:14:37;11.50;;;6.70;;
54613;SDS011;40514;52.758;6.360;2022-08-19T02:17:03;10.40;;;7.77;;
54613;SDS011;40514;52.758;6.360;2022-08-19T02:19:29;8.82;;;7.10;;
54613;SDS011;40514;52.758;6.360;2022-08-19T02:21:56;9.40;;;7.00;;
54613;SDS011;40514;52.758;6.360;2022-08-19T02:24:22;9.63;;;7.33;;
54613;SDS011;40514;52.758;6.360;2022-08-19T02:26:47;10.70;;;7.93;;
54613;SDS011;40514;52.758;6.360;2022-08-19T02:29:13;8.33;;;6.57;;
54613;SDS011;40514;52.758;6.360;2022-08-19T02:31:38;8.37;;;6.00;;
54613;SDS011;40514;52.758;6.360;2022-08-19T02:34:04;7.40;;;5.73;;
54613;SDS011;40514;52.758;6.360;2022-08-19T02:36:29;7.17;;;5.67;;
54613;SDS011;40514;52.758;6.360;2022-08-19T02:38:55;7.90;;;4.60;;
54613;SDS011;40514;52.758;6.360;2022-08-19T02:41:24;6.53;;;4.67;;
54613;SDS011;40514;52.758;6.360;2022-08-19T02:43:52;7.30;;;4.70;;
54613;SDS011;40514;52.758;6.360;2022-08-19T02:48:49;6.40;;;4.95;;
54613;SDS011;40514;52.758;6.360;2022-08-19T02:51:21;5.88;;;4.60;;
54613;SDS011;40514;52.758;6.360;2022-08-19T02:53:48;6.68;;;4.70;;
54613;SDS011;40514;52.758;6.360;2022-08-19T02:56:14;6.30;;;4.90;;
54613;SDS011;40514;52.758;6.360;2022-08-19T02:58:40;6.57;;;4.82;;
54613;SDS011;40514;52.758;6.360;2022-08-19T03:01:06;9.02;;;4.20;;
54613;SDS011;40514;52.758;6.360;2022-08-19T03:03:32;5.82;;;4.35;;
54613;SDS011;40514;52.758;6.360;2022-08-19T03:06:05;7.03;;;4.20;;
54613;SDS011;40514;52.758;6.360;2022-08-19T03:08:32;5.38;;;3.45;;
54613;SDS011;40514;52.758;6.360;2022-08-19T03:10:58;6.47;;;3.90;;
54613;SDS011;40514;52.758;6.360;2022-08-19T03:13:24;6.20;;;4.80;;
54613;SDS011;40514;52.758;6.360;2022-08-19T03:15:50;8.53;;;5.97;;
54613;SDS011;40514;52.758;6.360;2022-08-19T03:18:15;11.25;;;7.07;;
54613;SDS011;40514;52.758;6.360;2022-08-19T03:20:46;10.30;;;6.43;;
54613;SDS011;40514;52.758;6.360;2022-08-19T03:23:13;11.20;;;7.68;;
54613;SDS011;40514;52.758;6.360;2022-08-19T03:25:40;13.32;;;10.00;;
54613;SDS011;40514;52.758;6.360;2022-08-19T03:28:09;12.20;;;9.77;;
54613;SDS011;40514;52.758;6.360;2022-08-19T03:30:36;15.98;;;10.75;;
54613;SDS011;40514;52.758;6.360;2022-08-19T03:33:04;13.13;;;9.52;;
54613;SDS011;40514;52.758;6.360;2022-08-19T03:35:30;13.25;;;10.20;;
54613;SDS011;40514;52.758;6.360;2022-08-19T03:37:55;11.47;;;8.77;;
54613;SDS011;40514;52.758;6.360;2022-08-19T03:40:22;12.65;;;8.00;;
54613;SDS011;40514;52.758;6.360;2022-08-19T03:42:48;11.37;;;9.10;;
54613;SDS011;40514;52.758;6.360;2022-08-19T03:45:14;9.52;;;6.38;;
54613;SDS011;40514;52.758;6.360;2022-08-19T03:47:40;7.27;;;5.70;;
54613;SDS011;40514;52.758;6.360;2022-08-19T03:50:06;7.80;;;5.30;;
54613;SDS011;40514;52.758;6.360;2022-08-19T03:52:33;8.60;;;5.28;;
54613;SDS011;40514;52.758;6.360;2022-08-19T03:54:59;7.87;;;4.90;;
54613;SDS011;40514;52.758;6.360;2022-08-19T03:57:24;9.00;;;5.30;;
54613;SDS011;40514;52.758;6.360;2022-08-19T03:59:50;8.57;;;4.83;;
54613;SDS011;40514;52.758;6.360;2022-08-19T04:02:15;9.67;;;4.80;;
54613;SDS011;40514;52.758;6.360;2022-08-19T04:04:42;6.35;;;4.57;;
54613;SDS011;40514;52.758;6.360;2022-08-19T04:07:09;7.18;;;4.00;;
54613;SDS011;40514;52.758;6.360;2022-08-19T04:09:36;8.43;;;4.93;;
54613;SDS011;40514;52.758;6.360;2022-08-19T04:12:02;8.57;;;4.90;;
54613;SDS011;40514;52.758;6.360;2022-08-19T04:14:30;8.15;;;4.60;;
54613;SDS011;40514;52.758;6.360;2022-08-19T04:16:58;6.78;;;4.20;;
54613;SDS011;40514;52.758;6.360;2022-08-19T04:19:24;9.60;;;5.07;;
54613;SDS011;40514;52.758;6.360;2022-08-19T04:21:51;7.80;;;5.70;;
54613;SDS011;40514;52.758;6.360;2022-08-19T04:24:18;7.05;;;5.22;;
54613;SDS011;40514;52.758;6.360;2022-08-19T04:26:45;8.15;;;5.75;;
54613;SDS011;40514;52.758;6.360;2022-08-19T04:29:13;9.30;;;5.72;;
54613;SDS011;40514;52.758;6.360;2022-08-19T04:31:42;7.68;;;4.80;;
54613;SDS011;40514;52.758;6.360;2022-08-19T04:34:10;6.45;;;4.55;;
54613;SDS011;40514;52.758;6.360;2022-08-19T04:36:38;5.60;;;4.05;;
54613;SDS011;40514;52.758;6.360;2022-08-19T04:39:07;5.03;;;3.88;;
54613;SDS011;40514;52.758;6.360;2022-08-19T04:41:34;6.47;;;3.58;;
54613;SDS011;40514;52.758;6.360;2022-08-19T04:44:19;4.85;;;3.53;;
54613;SDS011;40514;52.758;6.360;2022-08-19T04:46:45;6.27;;;4.17;;
54613;SDS011;40514;52.758;6.360;2022-08-19T04:49:13;6.00;;;4.47;;
54613;SDS011;40514;52.758;6.360;2022-08-19T04:51:42;7.15;;;5.78;;
54613;SDS011;40514;52.758;6.360;2022-08-19T04:54:09;10.35;;;6.25;;
54613;SDS011;40514;52.758;6.360;2022-08-19T04:56:35;10.38;;;7.03;;
54613;SDS011;40514;52.758;6.360;2022-08-19T04:59:00;7.20;;;5.63;;
54613;SDS011;40514;52.758;6.360;2022-08-19T05:01:29;7.43;;;5.25;;
54613;SDS011;40514;52.758;6.360;2022-08-19T05:04:00;10.07;;;5.65;;
54613;SDS011;40514;52.758;6.360;2022-08-19T05:06:29;9.02;;;6.32;;
54613;SDS011;40514;52.758;6.360;2022-08-19T05:08:57;7.95;;;6.15;;
54613;SDS011;40514;52.758;6.360;2022-08-19T05:11:25;9.07;;;5.72;;
54613;SDS011;40514;52.758;6.360;2022-08-19T05:13:52;9.05;;;5.47;;
54613;SDS011;40514;52.758;6.360;2022-08-19T05:16:19;9.15;;;5.65;;
54613;SDS011;40514;52.758;6.360;2022-08-19T05:18:46;8.23;;;5.90;;
54613;SDS011;40514;52.758;6.360;2022-08-19T05:21:31;9.38;;;5.88;;
54613;SDS011;40514;52.758;6.360;2022-08-19T05:24:16;8.27;;;5.70;;
54613;SDS011;40514;52.758;6.360;2022-08-19T05:29:11;11.05;;;7.82;;
54613;SDS011;40514;52.758;6.360;2022-08-19T05:31:38;12.18;;;8.48;;
54613;SDS011;40514;52.758;6.360;2022-08-19T05:34:04;13.32;;;10.00;;
54613;SDS011;40514;52.758;6.360;2022-08-19T05:36:34;14.40;;;10.70;;
54613;SDS011;40514;52.758;6.360;2022-08-19T05:39:05;12.40;;;9.85;;
54613;SDS011;40514;52.758;6.360;2022-08-19T05:41:32;13.23;;;10.60;;
54613;SDS011;40514;52.758;6.360;2022-08-19T05:44:00;13.88;;;11.10;;
54613;SDS011;40514;52.758;6.360;2022-08-19T05:46:28;14.98;;;10.95;;
54613;SDS011;40514;52.758;6.360;2022-08-19T05:48:54;13.93;;;11.50;;
54613;SDS011;40514;52.758;6.360;2022-08-19T05:51:21;14.38;;;10.23;;
54613;SDS011;40514;52.758;6.360;2022-08-19T05:53:47;14.63;;;10.40;;
54613;SDS011;40514;52.758;6.360;2022-08-19T05:56:14;13.40;;;10.67;;
54613;SDS011;40514;52.758;6.360;2022-08-19T05:58:41;13.75;;;10.45;;
54613;SDS011;40514;52.758;6.360;2022-08-19T06:01:15;13.02;;;10.82;;
54613;SDS011;40514;52.758;6.360;2022-08-19T06:03:42;13.82;;;10.90;;
54613;SDS011;40514;52.758;6.360;2022-08-19T06:08:35;14.43;;;10.80;;
54613;SDS011;40514;52.758;6.360;2022-08-19T06:11:13;13.93;;;11.25;;
54613;SDS011;40514;52.758;6.360;2022-08-19T06:13:39;16.02;;;11.63;;
54613;SDS011;40514;52.758;6.360;2022-08-19T06:16:04;17.27;;;11.67;;
54613;SDS011;40514;52.758;6.360;2022-08-19T06:18:30;16.67;;;11.93;;
54613;SDS011;40514;52.758;6.360;2022-08-19T06:20:55;15.33;;;12.20;;
54613;SDS011;40514;52.758;6.360;2022-08-19T06:23:21;15.23;;;12.40;;
54613;SDS011;40514;52.758;6.360;2022-08-19T06:25:47;17.13;;;13.23;;
54613;SDS011;40514;52.758;6.360;2022-08-19T06:28:12;16.77;;;13.87;;
54613;SDS011;40514;52.758;6.360;2022-08-19T06:30:38;18.83;;;13.10;;
54613;SDS011;40514;52.758;6.360;2022-08-19T06:33:03;18.43;;;13.07;;
54613;SDS011;40514;52.758;6.360;2022-08-19T06:35:29;16.30;;;12.63;;
54613;SDS011;40514;52.758;6.360;2022-08-19T06:37:55;17.83;;;13.53;;
54613;SDS011;40514;52.758;6.360;2022-08-19T06:40:20;16.97;;;12.83;;
54613;SDS011;40514;52.758;6.360;2022-08-19T06:42:46;15.13;;;12.48;;
54613;SDS011;40514;52.758;6.360;2022-08-19T06:45:12;16.80;;;13.07;;
54613;SDS011;40514;52.758;6.360;2022-08-19T06:47:37;16.77;;;12.80;;
54613;SDS011;40514;52.758;6.360;2022-08-19T06:50:03;18.23;;;12.77;;
54613;SDS011;40514;52.758;6.360;2022-08-19T06:52:30;19.05;;;13.50;;
54613;SDS011;40514;52.758;6.360;2022-08-19T06:54:57;18.98;;;13.23;;
54613;SDS011;40514;52.758;6.360;2022-08-19T06:57:24;17.80;;;12.73;;
54613;SDS011;40514;52.758;6.360;2022-08-19T06:59:51;15.35;;;12.82;;
54613;SDS011;40514;52.758;6.360;2022-08-19T07:02:16;16.23;;;12.80;;
54613;SDS011;40514;52.758;6.360;2022-08-19T07:04:42;15.93;;;12.73;;
54613;SDS011;40514;52.758;6.360;2022-08-19T07:07:09;15.73;;;12.33;;
54613;SDS011;40514;52.758;6.360;2022-08-19T07:09:37;17.20;;;13.68;;
54613;SDS011;40514;52.758;6.360;2022-08-19T07:12:05;16.13;;;13.02;;
54613;SDS011;40514;52.758;6.360;2022-08-19T07:14:33;17.52;;;12.88;;
54613;SDS011;40514;52.758;6.360;2022-08-19T07:17:02;16.67;;;13.15;;
54613;SDS011;40514;52.758;6.360;2022-08-19T07:19:30;15.50;;;13.10;;
54613;SDS011;40514;52.758;6.360;2022-08-19T07:21:56;16.35;;;12.88;;
54613;SDS011;40514;52.758;6.360;2022-08-19T07:24:24;17.55;;;13.52;;
54613;SDS011;40514;52.758;6.360;2022-08-19T07:26:52;15.75;;;12.40;;
54613;SDS011;40514;52.758;6.360;2022-08-19T07:29:20;17.42;;;13.70;;
54613;SDS011;40514;52.758;6.360;2022-08-19T07:31:48;15.30;;;12.75;;
54613;SDS011;40514;52.758;6.360;2022-08-19T07:34:14;15.95;;;13.40;;
54613;SDS011;40514;52.758;6.360;2022-08-19T07:36:40;16.40;;;14.38;;
54613;SDS011;40514;52.758;6.360;2022-08-19T07:39:12;17.05;;;12.75;;
54613;SDS011;40514;52.758;6.360;2022-08-19T07:41:39;18.10;;;13.68;;
54613;SDS011;40514;52.758;6.360;2022-08-19T07:44:05;16.23;;;12.93;;
54613;SDS011;40514;52.758;6.360;2022-08-19T07:46:33;16.27;;;13.57;;
54613;SDS011;40514;52.758;6.360;2022-08-19T07:49:00;17.02;;;13.45;;
54613;SDS011;40514;52.758;6.360;2022-08-19T07:51:27;17.13;;;13.43;;
54613;SDS011;40514;52.758;6.360;2022-08-19T07:53:53;15.05;;;13.30;;
54613;SDS011;40514;52.758;6.360;2022-08-19T07:56:19;18.42;;;13.50;;
54613;SDS011;40514;52.758;6.360;2022-08-19T07:58:47;18.20;;;13.75;;
54613;SDS011;40514;52.758;6.360;2022-08-19T08:01:15;19.55;;;13.85;;
54613;SDS011;40514;52.758;6.360;2022-08-19T08:03:49;17.02;;;13.55;;
54613;SDS011;40514;52.758;6.360;2022-08-19T08:06:35;17.90;;;13.75;;
54613;SDS011;40514;52.758;6.360;2022-08-19T08:09:22;20.95;;;14.98;;
54613;SDS011;40514;52.758;6.360;2022-08-19T08:11:53;16.38;;;13.82;;
54613;SDS011;40514;52.758;6.360;2022-08-19T08:14:26;18.55;;;15.05;;
54613;SDS011;40514;52.758;6.360;2022-08-19T08:16:54;18.88;;;13.98;;
54613;SDS011;40514;52.758;6.360;2022-08-19T08:19:21;16.63;;;14.43;;
54613;SDS011;40514;52.758;6.360;2022-08-19T08:21:49;17.52;;;13.77;;
54613;SDS011;40514;52.758;6.360;2022-08-19T08:24:17;15.93;;;12.43;;
54613;SDS011;40514;52.758;6.360;2022-08-19T08:29:12;13.25;;;11.82;;
54613;SDS011;40514;52.758;6.360;2022-08-19T08:31:41;15.93;;;12.75;;
54613;SDS011;40514;52.758;6.360;2022-08-19T08:34:08;14.75;;;12.55;;
54613;SDS011;40514;52.758;6.360;2022-08-19T08:36:38;16.25;;;12.30;;
54613;SDS011;40514;52.758;6.360;2022-08-19T08:39:07;15.30;;;13.50;;
54613;SDS011;40514;52.758;6.360;2022-08-19T08:44:16;14.73;;;12.40;;
54613;SDS011;40514;52.758;6.360;2022-08-19T08:46:48;14.45;;;12.95;;
54613;SDS011;40514;52.758;6.360;2022-08-19T08:49:28;15.82;;;13.50;;
54613;SDS011;40514;52.758;6.360;2022-08-19T08:52:15;13.10;;;11.52;;
54613;SDS011;40514;52.758;6.360;2022-08-19T08:54:53;14.90;;;11.95;;
54613;SDS011;40514;52.758;6.360;2022-08-19T09:00:04;13.90;;;12.23;;
54613;SDS011;40514;52.758;6.360;2022-08-19T09:02:32;13.25;;;11.90;;
54613;SDS011;40514;52.758;6.360;2022-08-19T09:04:58;14.10;;;12.30;;
54613;SDS011;40514;52.758;6.360;2022-08-19T09:10:19;15.15;;;12.30;;
54613;SDS011;40514;52.758;6.360;2022-08-19T09:15:34;12.75;;;10.50;;
54613;SDS011;40514;52.758;6.360;2022-08-19T09:18:05;14.07;;;12.23;;
54613;SDS011;40514;52.758;6.360;2022-08-19T09:20:33;14.68;;;12.18;;
54613;SDS011;40514;52.758;6.360;2022-08-19T09:22:58;14.60;;;13.10;;
54613;SDS011;40514;52.758;6.360;2022-08-19T09:25:24;14.82;;;13.00;;
54613;SDS011;40514;52.758;6.360;2022-08-19T09:27:51;13.90;;;12.30;;
54613;SDS011;40514;52.758;6.360;2022-08-19T09:30:23;13.40;;;12.00;;
54613;SDS011;40514;52.758;6.360;2022-08-19T09:32:50;13.27;;;11.07;;
54613;SDS011;40514;52.758;6.360;2022-08-19T09:35:22;13.02;;;10.05;;
54613;SDS011;40514;52.758;6.360;2022-08-19T09:37:50;11.55;;;10.32;;
54613;SDS011;40514;52.758;6.360;2022-08-19T09:40:17;11.75;;;9.85;;
54613;SDS011;40514;52.758;6.360;2022-08-19T09:42:43;12.02;;;10.52;;
54613;SDS011;40514;52.758;6.360;2022-08-19T09:45:11;11.70;;;9.57;;
54613;SDS011;40514;52.758;6.360;2022-08-19T09:47:37;11.20;;;8.80;;
54613;SDS011;40514;52.758;6.360;2022-08-19T09:50:07;8.63;;;7.57;;
54613;SDS011;40514;52.758;6.360;2022-08-19T09:52:35;9.88;;;7.60;;
54613;SDS011;40514;52.758;6.360;2022-08-19T09:55:06;9.65;;;7.50;;
54613;SDS011;40514;52.758;6.360;2022-08-19T09:57:33;9.23;;;6.97;;
54613;SDS011;40514;52.758;6.360;2022-08-19T09:59:59;10.35;;;8.13;;
54613;SDS011;40514;52.758;6.360;2022-08-19T10:02:24;10.18;;;8.10;;
54613;SDS011;40514;52.758;6.360;2022-08-19T10:04:50;9.13;;;7.65;;
54613;SDS011;40514;52.758;6.360;2022-08-19T10:07:34;9.85;;;8.75;;
54613;SDS011;40514;52.758;6.360;2022-08-19T10:10:00;10.20;;;7.75;;
54613;SDS011;40514;52.758;6.360;2022-08-19T10:12:26;9.55;;;7.63;;
54613;SDS011;40514;52.758;6.360;2022-08-19T10:14:52;9.13;;;7.35;;
54613;SDS011;40514;52.758;6.360;2022-08-19T10:17:19;8.25;;;6.72;;
54613;SDS011;40514;52.758;6.360;2022-08-19T10:19:45;10.00;;;7.28;;
54613;SDS011;40514;52.758;6.360;2022-08-19T10:22:10;9.43;;;8.15;;
54613;SDS011;40514;52.758;6.360;2022-08-19T10:24:38;9.93;;;7.40;;
54613;SDS011;40514;52.758;6.360;2022-08-19T10:27:04;6.93;;;6.20;;
54613;SDS011;40514;52.758;6.360;2022-08-19T10:29:30;8.00;;;5.40;;
54613;SDS011;40514;52.758;6.360;2022-08-19T10:31:57;8.18;;;6.45;;
54613;SDS011;40514;52.758;6.360;2022-08-19T10:34:23;8.80;;;7.45;;
54613;SDS011;40514;52.758;6.360;2022-08-19T10:36:49;7.30;;;6.40;;
54613;SDS011;40514;52.758;6.360;2022-08-19T10:39:15;6.90;;;6.20;;
54613;SDS011;40514;52.758;6.360;2022-08-19T10:41:40;7.70;;;6.90;;
54613;SDS011;40514;52.758;6.360;2022-08-19T10:44:10;9.65;;;8.65;;
54613;SDS011;40514;52.758;6.360;2022-08-19T10:46:40;9.73;;;8.73;;
54613;SDS011;40514;52.758;6.360;2022-08-19T10:49:09;9.80;;;8.80;;
54613;SDS011;40514;52.758;6.360;2022-08-19T10:51:36;10.23;;;8.65;;
54613;SDS011;40514;52.758;6.360;2022-08-19T10:54:21;9.45;;;8.48;;
54613;SDS011;40514;52.758;6.360;2022-08-19T10:56:47;9.05;;;8.15;;
54613;SDS011;40514;52.758;6.360;2022-08-19T10:59:17;9.45;;;7.90;;
54613;SDS011;40514;52.758;6.360;2022-08-19T11:01:47;9.52;;;8.63;;
54613;SDS011;40514;52.758;6.360;2022-08-19T11:04:14;8.32;;;7.43;;
54613;SDS011;40514;52.758;6.360;2022-08-19T11:06:42;7.53;;;6.70;;
54613;SDS011;40514;52.758;6.360;2022-08-19T11:09:10;7.18;;;4.78;;
54613;SDS011;40514;52.758;6.360;2022-08-19T11:11:36;9.07;;;8.13;;
54613;SDS011;40514;52.758;6.360;2022-08-19T11:14:09;11.43;;;10.05;;
54613;SDS011;40514;52.758;6.360;2022-08-19T11:16:36;14.20;;;12.80;;
54613;SDS011;40514;52.758;6.360;2022-08-19T11:19:04;13.93;;;12.18;;
54613;SDS011;40514;52.758;6.360;2022-08-19T11:21:33;13.65;;;12.30;;
54613;SDS011;40514;52.758;6.360;2022-08-19T11:24:06;11.23;;;10.13;;
54613;SDS011;40514;52.758;6.360;2022-08-19T11:26:34;11.23;;;9.50;;
54613;SDS011;40514;52.758;6.360;2022-08-19T11:29:01;8.13;;;7.18;;
54613;SDS011;40514;52.758;6.360;2022-08-19T11:31:32;9.48;;;8.35;;
54613;SDS011;40514;52.758;6.360;2022-08-19T11:34:00;12.10;;;8.63;;
54613;SDS011;40514;52.758;6.360;2022-08-19T11:36:28;10.52;;;8.45;;
54613;SDS011;40514;52.758;6.360;2022-08-19T11:38:54;10.57;;;9.10;;
54613;SDS011;40514;52.758;6.360;2022-08-19T11:41:20;11.70;;;9.45;;
54613;SDS011;40514;52.758;6.360;2022-08-19T11:43:48;11.93;;;10.45;;
54613;SDS011;40514;52.758;6.360;2022-08-19T11:46:16;10.85;;;9.30;;
54613;SDS011;40514;52.758;6.360;2022-08-19T11:48:42;12.43;;;10.57;;
54613;SDS011;40514;52.758;6.360;2022-08-19T11:51:09;14.50;;;13.05;;
54613;SDS011;40514;52.758;6.360;2022-08-19T11:53:40;12.82;;;10.32;;
54613;SDS011;40514;52.758;6.360;2022-08-19T11:56:06;12.65;;;10.48;;
54613;SDS011;40514;52.758;6.360;2022-08-19T11:58:34;10.90;;;9.23;;
54613;SDS011;40514;52.758;6.360;2022-08-19T12:01:00;11.52;;;10.02;;
54613;SDS011;40514;52.758;6.360;2022-08-19T12:03:26;11.93;;;10.60;;
54613;SDS011;40514;52.758;6.360;2022-08-19T12:05:53;10.93;;;9.82;;
54613;SDS011;40514;52.758;6.360;2022-08-19T12:08:18;15.85;;;12.57;;
54613;SDS011;40514;52.758;6.360;2022-08-19T12:10:45;11.60;;;9.63;;
54613;SDS011;40514;52.758;6.360;2022-08-19T12:13:11;10.02;;;8.68;;
54613;SDS011;40514;52.758;6.360;2022-08-19T12:15:40;14.80;;;9.45;;
54613;SDS011;40514;52.758;6.360;2022-08-19T12:18:07;11.73;;;10.40;;
54613;SDS011;40514;52.758;6.360;2022-08-19T12:20:37;11.10;;;8.63;;
54613;SDS011;40514;52.758;6.360;2022-08-19T12:23:05;11.30;;;9.38;;
54613;SDS011;40514;52.758;6.360;2022-08-19T12:25:32;9.70;;;8.68;;
54613;SDS011;40514;52.758;6.360;2022-08-19T12:27:58;11.95;;;10.65;;
54613;SDS011;40514;52.758;6.360;2022-08-19T12:30:23;12.98;;;11.65;;
54613;SDS011;40514;52.758;6.360;2022-08-19T12:32:49;14.35;;;10.77;;
54613;SDS011;40514;52.758;6.360;2022-08-19T12:35:16;14.43;;;12.85;;
54613;SDS011;40514;52.758;6.360;2022-08-19T12:37:45;12.23;;;9.90;;
54613;SDS011;40514;52.758;6.360;2022-08-19T12:40:12;13.10;;;11.70;;
54613;SDS011;40514;52.758;6.360;2022-08-19T12:42:39;12.15;;;10.43;;
54613;SDS011;40514;52.758;6.360;2022-08-19T12:45:07;12.30;;;9.85;;
54613;SDS011;40514;52.758;6.360;2022-08-19T12:47:33;12.02;;;10.00;;
54613;SDS011;40514;52.758;6.360;2022-08-19T12:49:59;11.70;;;7.75;;
54613;SDS011;40514;52.758;6.360;2022-08-19T12:52:25;7.40;;;6.07;;
54613;SDS011;40514;52.758;6.360;2022-08-19T12:54:52;7.53;;;6.32;;
54613;SDS011;40514;52.758;6.360;2022-08-19T12:57:19;10.25;;;8.07;;
54613;SDS011;40514;52.758;6.360;2022-08-19T12:59:45;9.90;;;8.60;;
54613;SDS011;40514;52.758;6.360;2022-08-19T13:02:10;15.27;;;10.00;;
54613;SDS011;40514;52.758;6.360;2022-08-19T13:04:36;14.23;;;9.75;;
54613;SDS011;40514;52.758;6.360;2022-08-19T13:07:05;9.90;;;8.18;;
54613;SDS011;40514;52.758;6.360;2022-08-19T13:09:32;10.95;;;6.57;;
54613;SDS011;40514;52.758;6.360;2022-08-19T13:11:57;14.13;;;10.18;;
54613;SDS011;40514;52.758;6.360;2022-08-19T13:14:23;12.70;;;8.48;;
54613;SDS011;40514;52.758;6.360;2022-08-19T13:16:48;13.27;;;10.68;;
54613;SDS011;40514;52.758;6.360;2022-08-19T13:19:14;12.40;;;8.82;;
54613;SDS011;40514;52.758;6.360;2022-08-19T13:21:40;12.10;;;8.88;;
54613;SDS011;40514;52.758;6.360;2022-08-19T13:24:05;12.73;;;9.55;;
54613;SDS011;40514;52.758;6.360;2022-08-19T13:26:31;10.50;;;6.85;;
54613;SDS011;40514;52.758;6.360;2022-08-19T13:28:56;11.73;;;8.65;;
54613;SDS011;40514;52.758;6.360;2022-08-19T13:31:41;12.23;;;9.38;;
54613;SDS011;40514;52.758;6.360;2022-08-19T13:34:30;10.25;;;8.95;;
54613;SDS011;40514;52.758;6.360;2022-08-19T13:36:58;13.25;;;9.38;;
54613;SDS011;40514;52.758;6.360;2022-08-19T13:39:27;12.70;;;8.95;;
54613;SDS011;40514;52.758;6.360;2022-08-19T13:41:53;11.48;;;9.40;;
54613;SDS011;40514;52.758;6.360;2022-08-19T13:44:19;13.93;;;10.23;;
54613;SDS011;40514;52.758;6.360;2022-08-19T13:46:45;12.77;;;10.52;;
54613;SDS011;40514;52.758;6.360;2022-08-19T13:49:13;15.85;;;10.60;;
54613;SDS011;40514;52.758;6.360;2022-08-19T13:51:40;14.80;;;10.85;;
54613;SDS011;40514;52.758;6.360;2022-08-19T13:54:07;11.98;;;10.30;;
54613;SDS011;40514;52.758;6.360;2022-08-19T13:56:34;11.13;;;10.02;;
54613;SDS011;40514;52.758;6.360;2022-08-19T13:59:04;13.60;;;10.75;;
54613;SDS011;40514;52.758;6.360;2022-08-19T14:01:29;15.05;;;11.63;;
54613;SDS011;40514;52.758;6.360;2022-08-19T14:03:55;13.75;;;10.63;;
54613;SDS011;40514;52.758;6.360;2022-08-19T14:06:21;14.23;;;11.07;;
54613;SDS011;40514;52.758;6.360;2022-08-19T14:08:47;15.88;;;11.50;;
54613;SDS011;40514;52.758;6.360;2022-08-19T14:11:13;14.85;;;12.23;;
54613;SDS011;40514;52.758;6.360;2022-08-19T14:13:39;14.88;;;11.77;;
54613;SDS011;40514;52.758;6.360;2022-08-19T14:16:09;14.88;;;11.88;;
54613;SDS011;40514;52.758;6.360;2022-08-19T14:18:36;15.10;;;11.88;;
54613;SDS011;40514;52.758;6.360;2022-08-19T14:21:02;15.25;;;11.05;;
54613;SDS011;40514;52.758;6.360;2022-08-19T14:23:29;15.68;;;11.05;;
54613;SDS011;40514;52.758;6.360;2022-08-19T14:26:02;15.70;;;11.65;;
54613;SDS011;40514;52.758;6.360;2022-08-19T14:28:29;13.52;;;11.02;;
54613;SDS011;40514;52.758;6.360;2022-08-19T14:30:55;14.18;;;9.70;;
54613;SDS011;40514;52.758;6.360;2022-08-19T14:33:21;11.45;;;9.35;;
54613;SDS011;40514;52.758;6.360;2022-08-19T14:35:46;11.40;;;8.90;;
54613;SDS011;40514;52.758;6.360;2022-08-19T14:38:15;12.18;;;9.98;;
54613;SDS011;40514;52.758;6.360;2022-08-19T14:40:42;13.05;;;10.07;;
54613;SDS011;40514;52.758;6.360;2022-08-19T14:43:09;15.18;;;10.35;;
54613;SDS011;40514;52.758;6.360;2022-08-19T14:45:36;13.48;;;9.27;;
54613;SDS011;40514;52.758;6.360;2022-08-19T14:48:06;14.65;;;10.32;;
54613;SDS011;40514;52.758;6.360;2022-08-19T14:50:33;13.90;;;10.98;;
54613;SDS011;40514;52.758;6.360;2022-08-19T14:53:03;14.27;;;11.23;;
54613;SDS011;40514;52.758;6.360;2022-08-19T14:55:31;15.48;;;10.80;;
54613;SDS011;40514;52.758;6.360;2022-08-19T14:57:57;13.32;;;10.98;;
54613;SDS011;40514;52.758;6.360;2022-08-19T15:00:23;14.77;;;10.93;;
54613;SDS011;40514;52.758;6.360;2022-08-19T15:02:50;14.85;;;10.00;;
54613;SDS011;40514;52.758;6.360;2022-08-19T15:05:15;11.63;;;9.57;;
54613;SDS011;40514;52.758;6.360;2022-08-19T15:07:41;13.18;;;9.05;;
54613;SDS011;40514;52.758;6.360;2022-08-19T15:10:08;12.38;;;9.07;;
54613;SDS011;40514;52.758;6.360;2022-08-19T15:12:35;12.25;;;8.73;;
54613;SDS011;40514;52.758;6.360;2022-08-19T15:15:01;21.38;;;10.48;;
54613;SDS011;40514;52.758;6.360;2022-08-19T15:17:27;15.73;;;9.80;;
54613;SDS011;40514;52.758;6.360;2022-08-19T15:19:55;14.60;;;9.30;;
54613;SDS011;40514;52.758;6.360;2022-08-19T15:22:21;11.75;;;9.10;;
54613;SDS011;40514;52.758;6.360;2022-08-19T15:24:46;13.20;;;9.43;;
54613;SDS011;40514;52.758;6.360;2022-08-19T15:27:12;11.68;;;7.72;;
54613;SDS011;40514;52.758;6.360;2022-08-19T15:32:05;11.90;;;7.45;;
54613;SDS011;40514;52.758;6.360;2022-08-19T15:34:32;14.00;;;7.38;;
54613;SDS011;40514;52.758;6.360;2022-08-19T15:36:58;12.07;;;7.50;;
54613;SDS011;40514;52.758;6.360;2022-08-19T15:39:24;13.68;;;9.25;;